Time;durP1;ratioP1;P1;durP2;ratioP2;P2;SDS_P1;SDS_P2;PMS_P1;PMS_P2;Temp;Humidity;BMP_temperature;BMP_pressure;BME280_temperature;BME280_humidity;BME280_pressure;Samples;Min_cycle;Max_cycle;Signal;HPM_P1;HPM_P2
2023/12/28 00:01:44;;;;;;;72.63;69.25;;;;;;;10.18;69.18;100784.97;5015564;28;20033;-70
2023/12/28 00:04:09;;;;;;;73.20;69.90;;;;;;;10.18;69.21;100790.38;5021279;28;20471;-68
2023/12/28 00:06:34;;;;;;;75.53;71.95;;;;;;;10.20;69.29;100792.81;5021564;28;20116;-69
2023/12/28 00:09:02;;;;;;;72.40;69.15;;;;;;;10.22;69.15;100793.41;5019405;28;20466;-71
2023/12/28 00:11:28;;;;;;;71.85;68.55;;;;;;;10.24;69.29;100780.50;5023081;28;20029;-69
2023/12/28 00:13:53;;;;;;;79.07;75.13;;;;;;;10.24;69.44;100785.09;5030302;28;20192;-71
2023/12/28 00:16:19;;;;;;;73.35;70.05;;;;;;;10.24;69.36;100790.47;5034093;28;20475;-69
2023/12/28 00:18:44;;;;;;;77.18;73.78;;;;;;;10.26;69.54;100801.88;5013121;28;20327;-69
2023/12/28 00:21:09;;;;;;;73.93;70.60;;;;;;;10.23;69.44;100792.38;5015656;28;20057;-69
2023/12/28 00:23:35;;;;;;;76.20;72.70;;;;;;;10.24;69.58;100802.09;5024334;28;20351;-69
2023/12/28 00:26:00;;;;;;;69.57;66.47;;;;;;;10.27;69.36;100811.59;5024363;28;20108;-69
2023/12/28 00:28:26;;;;;;;70.15;66.93;;;;;;;10.26;69.47;100808.09;5023295;28;20077;-70
2023/12/28 00:30:51;;;;;;;73.15;69.68;;;;;;;10.27;69.41;100809.72;5035293;28;20049;-73
2023/12/28 00:33:16;;;;;;;75.72;72.32;;;;;;;10.28;69.45;100827.59;5029418;28;20095;-70
2023/12/28 00:35:42;;;;;;;71.78;68.38;;;;;;;10.30;69.57;100821.94;5028696;28;20536;-69
2023/12/28 00:38:07;;;;;;;72.97;69.75;;;;;;;10.31;69.25;100819.00;5013326;28;20029;-68
2023/12/28 00:40:33;;;;;;;75.38;71.95;;;;;;;10.30;69.34;100820.06;5021033;28;20041;-70
2023/12/28 00:42:58;;;;;;;70.13;66.93;;;;;;;10.31;69.31;100835.22;5021690;28;20035;-70
2023/12/28 00:45:24;;;;;;;77.40;73.90;;;;;;;10.32;69.43;100830.63;5017387;28;20473;-72
2023/12/28 00:47:51;;;;;;;73.15;69.85;;;;;;;10.33;69.46;100843.06;5027441;28;20065;-70
2023/12/28 00:50:16;;;;;;;76.28;72.78;;;;;;;10.35;69.47;100835.53;5020890;28;20088;-69
2023/12/28 00:52:42;;;;;;;73.95;70.45;;;;;;;10.36;69.28;100829.09;5024746;28;20525;-69
2023/12/28 00:55:07;;;;;;;75.57;72.18;;;;;;;10.35;69.77;100830.97;5017589;28;20025;-70
2023/12/28 00:57:33;;;;;;;75.28;71.68;;;;;;;10.35;69.38;100835.53;5013114;28;20030;-69
2023/12/28 00:59:59;;;;;;;74.88;71.45;;;;;;;10.34;69.68;100834.72;5024178;28;20458;-70
2023/12/28 01:02:24;;;;;;;77.28;73.80;;;;;;;10.35;69.45;100836.34;5033519;28;20408;-70
2023/12/28 01:04:50;;;;;;;72.97;69.68;;;;;;;10.34;69.53;100834.72;5031535;28;20112;-68
2023/12/28 01:07:15;;;;;;;70.18;67.03;;;;;;;10.35;69.92;100839.06;5032792;28;20416;-68
2023/12/28 01:09:40;;;;;;;73.65;70.15;;;;;;;10.36;69.74;100843.41;5043997;28;20165;-68
2023/12/28 01:12:06;;;;;;;71.80;68.53;;;;;;;10.38;69.61;100849.41;5032787;28;20523;-69
2023/12/28 01:14:32;;;;;;;73.10;69.70;;;;;;;10.37;69.57;100846.94;5025301;28;20058;-69
2023/12/28 01:16:57;;;;;;;75.07;71.68;;;;;;;10.36;69.74;100846.13;5042947;28;20025;-68
2023/12/28 01:19:23;;;;;;;74.72;70.97;;;;;;;10.34;69.70;100856.34;5019021;28;20026;-69
2023/12/28 01:21:49;;;;;;;71.78;68.57;;;;;;;10.34;69.85;100852.81;5044336;28;20132;-69
2023/12/28 01:24:15;;;;;;;73.75;70.45;;;;;;;10.35;69.86;100860.66;5033552;28;20141;-69
2023/12/28 01:26:40;;;;;;;81.15;77.25;;;;;;;10.38;69.97;100864.75;5033431;28;20116;-70
2023/12/28 01:29:05;;;;;;;73.35;70.00;;;;;;;10.37;69.83;100855.84;5019000;28;20041;-70
2023/12/28 01:31:31;;;;;;;73.68;70.32;;;;;;;10.37;69.84;100863.94;5029207;28;20462;-70
2023/12/28 01:33:56;;;;;;;73.03;69.63;;;;;;;10.37;69.93;100860.44;5033309;28;20036;-69
2023/12/28 01:36:22;;;;;;;74.25;70.85;;;;;;;10.37;69.87;100855.84;5044185;28;20060;-69
2023/12/28 01:38:48;;;;;;;79.38;74.45;;;;;;;10.38;70.08;100857.50;5031841;28;20032;-69
2023/12/28 01:41:15;;;;;;;73.70;70.15;;;;;;;10.40;69.88;100868.06;5032091;28;20018;-69
2023/12/28 01:43:42;;;;;;;77.47;73.88;;;;;;;10.43;69.83;100861.34;5023374;28;20033;-69
2023/12/28 01:46:16;;;;;;;72.25;68.72;;;;;;;10.44;69.71;100871.13;5018862;28;20025;-69
2023/12/28 01:48:44;;;;;;;77.30;73.70;;;;;;;10.44;69.81;100868.41;5014649;28;20026;-72
2023/12/28 01:51:11;;;;;;;71.45;68.25;;;;;;;10.42;69.85;100860.53;5016141;28;20353;-70
2023/12/28 01:53:37;;;;;;;76.93;73.32;;;;;;;10.42;69.88;100871.34;5028559;28;20029;-70
2023/12/28 01:56:03;;;;;;;74.03;70.72;;;;;;;10.42;70.08;100871.34;5023096;28;20469;-69
2023/12/28 01:58:32;;;;;;;72.43;69.13;;;;;;;10.40;70.10;100876.16;5017753;28;20048;-69
2023/12/28 02:00:58;;;;;;;74.78;71.30;;;;;;;10.41;70.08;100875.09;5026773;28;20041;-68
2023/12/28 02:03:23;;;;;;;72.28;69.07;;;;;;;10.42;70.07;100881.31;5033467;28;20048;-68
2023/12/28 02:05:49;;;;;;;76.40;72.90;;;;;;;10.43;70.14;100885.66;5031373;28;20033;-69
2023/12/28 02:08:15;;;;;;;76.85;73.15;;;;;;;10.45;70.12;100880.84;5023237;28;20033;-69
2023/12/28 02:10:40;;;;;;;78.70;74.90;;;;;;;10.45;70.00;100878.97;5034544;28;20405;-70
2023/12/28 02:13:06;;;;;;;73.70;70.40;;;;;;;10.47;70.06;100884.13;5029486;28;20030;-70
2023/12/28 02:15:31;;;;;;;76.38;72.90;;;;;;;10.45;70.04;100875.44;5024397;28;20030;-69
2023/12/28 02:18:10;;;;;;;78.32;74.82;;;;;;;10.46;70.21;100879.78;5025030;28;20336;-69
2023/12/28 02:20:36;;;;;;;;;;;;;;;10.47;69.88;100876.84;5028748;28;20051;-70
2023/12/28 02:23:02;;;;;;;69.75;66.28;;;;;;;10.45;70.12;100875.44;5047690;28;19917;-70
2023/12/28 02:25:27;;;;;;;74.32;71.03;;;;;;;10.43;70.13;100872.97;5040891;28;20029;-68
2023/12/28 02:27:53;;;;;;;76.75;73.22;;;;;;;10.43;70.24;100880.25;5031373;28;20071;-69
2023/12/28 02:30:28;;;;;;;71.65;68.28;;;;;;;10.45;70.22;100878.13;5033495;28;20043;-69
2023/12/28 02:33:15;;;;;;;78.55;74.95;;;;;;;10.44;70.07;100884.63;5023245;28;20034;-69
2023/12/28 02:36:01;;;;;;;74.60;71.18;;;;;;;10.43;70.30;100875.66;5025430;28;20088;-69
2023/12/28 02:38:29;;;;;;;72.18;68.90;;;;;;;10.42;70.33;100874.03;5031782;28;20457;-68
2023/12/28 02:40:56;;;;;;;73.57;70.07;;;;;;;10.44;70.23;100873.81;5032895;28;20025;-70
2023/12/28 02:43:22;;;;;;;75.28;71.80;;;;;;;10.44;70.23;100863.00;5022211;28;20037;-70
2023/12/28 02:45:47;;;;;;;75.10;71.70;;;;;;;10.44;70.00;100860.31;5026858;28;20306;-69
2023/12/28 02:48:13;;;;;;;75.25;71.85;;;;;;;10.45;70.13;100872.75;5048369;28;20513;-68
2023/12/28 02:50:38;;;;;;;75.75;72.35;;;;;;;10.46;70.00;100860.88;5032584;28;20033;-69
2023/12/28 02:53:04;;;;;;;80.10;76.50;;;;;;;10.46;70.26;100858.16;5020377;28;20053;-71
2023/12/28 02:55:29;;;;;;;75.85;72.40;;;;;;;10.46;70.31;100856.31;5032041;28;20358;-69
2023/12/28 02:57:59;;;;;;;76.35;72.82;;;;;;;10.47;70.11;100857.13;5032102;28;20072;-70
2023/12/28 03:00:25;;;;;;;76.95;73.05;;;;;;;10.47;70.18;100855.25;5030826;28;20382;-68
2023/12/28 03:02:51;;;;;;;73.55;70.15;;;;;;;10.46;70.15;100841.97;5025876;28;20483;-69
2023/12/28 03:05:16;;;;;;;77.20;73.60;;;;;;;10.45;70.46;100843.84;5024148;28;20036;-71
2023/12/28 03:07:42;;;;;;;75.53;72.13;;;;;;;10.44;70.50;100844.91;5011821;28;20410;-71
2023/12/28 03:10:08;;;;;;;79.15;75.65;;;;;;;10.45;70.43;100843.84;5014766;28;20044;-70
2023/12/28 03:12:33;;;;;;;75.15;71.75;;;;;;;10.46;70.23;100855.47;5032098;28;20025;-69
2023/12/28 03:14:59;;;;;;;80.88;77.18;;;;;;;10.45;70.43;100862.75;5032592;28;20056;-71
2023/12/28 03:17:24;;;;;;;73.32;69.85;;;;;;;10.44;70.49;100863.00;5024959;28;20414;-70
2023/12/28 03:19:50;;;;;;;76.38;72.78;;;;;;;10.46;70.44;100860.88;5012834;28;20324;-71
2023/12/28 03:22:17;;;;;;;75.45;71.93;;;;;;;10.46;70.61;100867.13;5027861;28;20025;-69
2023/12/28 03:24:42;;;;;;;78.38;74.88;;;;;;;10.48;70.39;100873.09;5013118;28;20454;-70
2023/12/28 03:27:08;;;;;;;76.07;72.47;;;;;;;10.51;70.20;100877.22;5029377;28;20036;-69
2023/12/28 03:29:33;;;;;;;72.65;69.45;;;;;;;10.51;70.36;100879.91;5028319;28;20025;-69
2023/12/28 03:31:59;;;;;;;77.05;73.35;;;;;;;10.52;70.24;100879.66;5026138;28;20037;-70
2023/12/28 03:34:26;;;;;;;77.22;73.63;;;;;;;10.52;69.91;100884.25;5012913;28;20030;-68
2023/12/28 03:36:52;;;;;;;75.85;72.35;;;;;;;10.53;70.20;100880.47;5029845;28;20497;-69
2023/12/28 03:39:18;;;;;;;75.55;72.15;;;;;;;10.52;70.19;100868.84;5030548;28;20446;-72
2023/12/28 03:41:43;;;;;;;74.65;71.25;;;;;;;10.54;70.08;100869.44;5027747;28;20057;-70
2023/12/28 03:44:09;;;;;;;78.68;75.20;;;;;;;10.54;70.22;100866.72;5029173;28;20052;-70
2023/12/28 03:46:34;;;;;;;74.88;71.55;;;;;;;10.55;70.07;100862.16;5021150;28;20033;-70
2023/12/28 03:49:00;;;;;;;78.40;74.38;;;;;;;10.55;70.20;100857.56;5024113;28;20066;-70
2023/12/28 03:51:25;;;;;;;79.78;76.20;;;;;;;10.57;70.00;100871.66;5026047;28;20033;-70
2023/12/28 03:53:50;;;;;;;76.75;73.15;;;;;;;10.56;70.28;100853.00;5038389;28;20377;-70
2023/12/28 03:56:20;;;;;;;77.15;73.25;;;;;;;10.57;70.13;100854.63;5043249;28;20068;-70
2023/12/28 03:58:46;;;;;;;77.57;74.18;;;;;;;10.57;70.32;100858.16;5037583;28;20033;-71
2023/12/28 04:01:11;;;;;;;77.65;73.93;;;;;;;10.57;70.30;100851.94;5023847;28;20041;-69
2023/12/28 04:03:37;;;;;;;75.43;71.97;;;;;;;10.57;69.96;100857.34;5029834;28;20083;-71
2023/12/28 04:06:02;;;;;;;76.38;72.88;;;;;;;10.56;70.26;100853.00;5019723;28;20037;-70
2023/12/28 04:08:27;;;;;;;76.43;72.95;;;;;;;10.57;70.00;100851.94;5016587;28;20355;-70
2023/12/28 04:10:53;;;;;;;77.43;73.88;;;;;;;10.57;70.31;100855.44;5029750;28;20425;-70
2023/12/28 04:13:18;;;;;;;77.25;73.78;;;;;;;10.56;70.33;100853.00;5012933;28;20026;-70
2023/12/28 04:15:43;;;;;;;79.18;75.28;;;;;;;10.57;70.29;100851.94;5045428;28;20115;-70
2023/12/28 04:18:09;;;;;;;77.53;73.53;;;;;;;10.58;69.93;100859.81;5039437;28;20049;-70
2023/12/28 04:20:34;;;;;;;79.82;76.25;;;;;;;10.58;70.16;100867.91;5013646;28;20033;-69
2023/12/28 04:23:00;;;;;;;75.97;72.18;;;;;;;10.59;70.04;100874.94;5016664;28;20454;-71
2023/12/28 04:25:25;;;;;;;73.00;69.72;;;;;;;10.58;70.30;100865.19;5031568;28;20099;-69
2023/12/28 04:27:50;;;;;;;77.53;74.03;;;;;;;10.60;70.19;100854.97;5023442;28;20030;-69
2023/12/28 04:30:16;;;;;;;74.45;71.05;;;;;;;10.60;69.95;100854.13;5025760;28;20061;-70
2023/12/28 04:32:41;;;;;;;78.47;74.93;;;;;;;10.58;70.02;100875.16;5012285;28;20038;-69
2023/12/28 04:35:07;;;;;;;78.00;74.40;;;;;;;10.59;70.04;100877.63;5028145;28;20112;-69
2023/12/28 04:37:32;;;;;;;76.05;72.60;;;;;;;10.59;69.97;100887.63;5028571;28;20033;-68
2023/12/28 04:39:58;;;;;;;76.97;73.47;;;;;;;10.60;70.00;100883.84;5025116;28;20091;-70
2023/12/28 04:42:23;;;;;;;79.95;76.40;;;;;;;10.61;70.08;100888.22;5041227;28;20060;-70
2023/12/28 04:44:49;;;;;;;79.53;76.03;;;;;;;10.62;70.01;100881.75;5040257;28;20489;-70
2023/12/28 04:47:14;;;;;;;78.55;74.85;;;;;;;10.64;70.09;100886.91;5034567;28;20088;-70
2023/12/28 04:49:40;;;;;;;77.03;73.43;;;;;;;10.66;70.09;100880.22;5030514;28;20039;-68
2023/12/28 04:52:05;;;;;;;80.18;76.22;;;;;;;10.68;69.96;100878.06;5038880;28;20039;-69
2023/12/28 04:54:32;;;;;;;77.35;73.85;;;;;;;10.68;70.02;100893.47;5030894;28;20038;-69
2023/12/28 04:56:58;;;;;;;80.50;76.72;;;;;;;10.67;70.04;100887.25;5027075;28;20041;-69
2023/12/28 04:59:23;;;;;;;76.65;73.22;;;;;;;10.67;70.18;100889.94;5023077;28;20056;-70
2023/12/28 05:01:48;;;;;;;79.28;75.78;;;;;;;10.67;69.86;100895.34;5036416;28;20494;-70
2023/12/28 05:04:14;;;;;;;78.15;74.65;;;;;;;10.69;70.01;100877.03;5031008;28;20029;-69
2023/12/28 05:06:39;;;;;;;76.15;72.70;;;;;;;10.67;69.80;100871.03;5027352;28;20156;-68
2023/12/28 05:09:05;;;;;;;81.85;78.15;;;;;;;10.68;69.88;100882.66;5021316;28;20079;-69
2023/12/28 05:11:31;;;;;;;77.10;73.60;;;;;;;10.67;70.26;100886.44;5021148;28;20057;-69
2023/12/28 05:13:56;;;;;;;75.50;71.82;;;;;;;10.67;70.05;100879.13;5020598;28;20164;-69
2023/12/28 05:16:22;;;;;;;76.22;72.82;;;;;;;10.67;70.15;100886.44;5015102;28;20087;-69
2023/12/28 05:18:47;;;;;;;74.88;71.47;;;;;;;10.68;69.98;100891.56;5025837;28;20030;-69
2023/12/28 05:21:13;;;;;;;76.65;72.95;;;;;;;10.70;70.12;100883.25;5030726;28;20124;-69
2023/12/28 05:23:39;;;;;;;73.38;70.03;;;;;;;10.69;69.95;100901.34;5025056;28;20034;-69
2023/12/28 05:26:04;;;;;;;77.65;74.05;;;;;;;10.71;70.25;100899.22;5043071;28;20052;-69
2023/12/28 05:28:30;;;;;;;75.20;71.85;;;;;;;10.72;70.16;100903.56;5029800;28;20079;-69
2023/12/28 05:30:56;;;;;;;74.30;71.00;;;;;;;10.74;70.22;100896.03;5021518;28;20045;-69
2023/12/28 05:33:22;;;;;;;78.15;74.55;;;;;;;10.75;70.06;100884.16;5022189;28;20114;-69
2023/12/28 05:35:48;;;;;;;76.13;72.78;;;;;;;10.76;70.12;100888.53;5021988;28;20049;-68
2023/12/28 05:38:13;;;;;;;79.03;75.00;;;;;;;10.75;70.24;100878.75;5027065;28;20037;-69
2023/12/28 05:40:38;;;;;;;77.47;73.90;;;;;;;10.75;69.59;100883.34;5037769;28;20113;-69
2023/12/28 05:43:04;;;;;;;74.03;70.30;;;;;;;10.75;69.95;100892.25;5032239;28;20030;-68
2023/12/28 05:45:29;;;;;;;77.88;74.38;;;;;;;10.77;69.72;100895.56;5038069;28;20033;-68
2023/12/28 05:47:55;;;;;;;79.30;75.72;;;;;;;10.77;69.93;100886.63;5038532;28;20040;-69
2023/12/28 05:50:20;;;;;;;82.60;78.13;;;;;;;10.77;69.58;100886.63;5019695;28;20481;-69
2023/12/28 05:52:46;;;;;;;79.68;76.00;;;;;;;10.75;69.77;100905.78;5022346;28;20107;-69
2023/12/28 05:55:11;;;;;;;80.32;76.72;;;;;;;10.74;69.95;100906.03;5023390;28;20124;-68
2023/12/28 05:57:36;;;;;;;79.07;75.20;;;;;;;10.73;69.88;100915.19;5039073;28;20079;-68
2023/12/28 06:00:04;;;;;;;79.05;75.40;;;;;;;10.75;70.06;100913.06;5032241;28;20053;-69
2023/12/28 06:02:29;;;;;;;79.47;75.78;;;;;;;10.75;69.97;100905.78;5030623;28;20026;-69
2023/12/28 06:04:55;;;;;;;78.70;74.72;;;;;;;10.74;70.21;100906.03;5024285;28;20041;-69
2023/12/28 06:07:20;;;;;;;78.78;75.20;;;;;;;10.74;70.01;100897.94;5021796;28;20607;-70
2023/12/28 06:09:46;;;;;;;76.93;73.45;;;;;;;10.74;70.07;100897.94;5032570;28;20030;-69
2023/12/28 06:12:11;;;;;;;78.13;74.13;;;;;;;10.74;70.06;100904.16;5033418;28;20180;-68
2023/12/28 06:14:36;;;;;;;78.85;75.35;;;;;;;10.75;69.85;100902.25;5031957;28;20060;-69
2023/12/28 06:17:02;;;;;;;76.00;72.63;;;;;;;10.76;70.20;100895.78;5026247;28;20037;-71
2023/12/28 06:19:28;;;;;;;79.40;75.47;;;;;;;10.75;70.02;100903.06;5021913;28;20045;-70
2023/12/28 06:21:54;;;;;;;78.18;74.72;;;;;;;10.75;69.95;100911.19;5031015;28;20121;-69
2023/12/28 06:24:19;;;;;;;77.85;74.25;;;;;;;10.76;69.94;100922.78;5030447;28;20457;-68
2023/12/28 06:26:45;;;;;;;78.25;74.25;;;;;;;10.77;69.91;100927.97;5020763;28;20040;-69
2023/12/28 06:29:10;;;;;;;81.28;77.20;;;;;;;10.79;70.16;100942.06;5029910;28;20050;-69
2023/12/28 06:31:36;;;;;;;82.03;77.95;;;;;;;10.81;69.84;100933.75;5028807;28;20125;-69
2023/12/28 06:34:08;;;;;;;79.80;76.00;;;;;;;10.82;69.74;100936.19;5028741;28;20351;-70
2023/12/28 06:36:34;;;;;;;81.97;78.32;;;;;;;10.81;69.98;100934.56;5027370;28;20032;-69
2023/12/28 06:38:59;;;;;;;80.25;76.20;;;;;;;10.83;69.61;100935.13;5013763;28;20080;-69
2023/12/28 06:41:26;;;;;;;81.07;76.65;;;;;;;10.85;69.70;100939.47;5028692;28;20036;-69
2023/12/28 06:43:52;;;;;;;81.60;77.50;;;;;;;10.85;69.78;100932.19;5029745;28;20034;-68
2023/12/28 06:46:18;;;;;;;81.88;77.97;;;;;;;10.82;69.94;100933.47;5013480;28;20030;-68
2023/12/28 06:48:43;;;;;;;80.05;76.45;;;;;;;10.85;69.40;100947.59;5013615;28;20117;-69
2023/12/28 06:51:09;;;;;;;78.85;75.10;;;;;;;10.86;69.29;100941.09;5015235;28;20048;-69
2023/12/28 06:53:35;;;;;;;80.60;76.47;;;;;;;10.86;69.62;100933.84;5035405;28;20121;-69
2023/12/28 06:56:00;;;;;;;81.18;77.20;;;;;;;10.86;69.50;100931.13;5013498;28;20100;-69
2023/12/28 06:58:26;;;;;;;78.95;75.32;;;;;;;10.85;69.50;100928.66;5032494;28;20034;-70
2023/12/28 07:00:51;;;;;;;79.90;75.97;;;;;;;10.86;69.58;100930.28;5024942;28;20465;-70
2023/12/28 07:03:17;;;;;;;81.38;77.18;;;;;;;10.87;69.65;100931.94;5040351;28;20038;-81
2023/12/28 07:05:42;;;;;;;79.28;75.55;;;;;;;10.87;69.45;100935.47;5031411;28;20034;-68
2023/12/28 07:08:08;;;;;;;77.32;73.88;;;;;;;10.90;69.67;100934.97;5025136;28;20026;-70
2023/12/28 07:10:34;;;;;;;78.47;74.35;;;;;;;10.91;69.41;100944.75;5033639;28;20169;-68
2023/12/28 07:12:59;;;;;;;80.90;77.22;;;;;;;10.89;69.57;100948.75;5013220;28;20034;-69
2023/12/28 07:15:25;;;;;;;80.68;76.97;;;;;;;10.89;69.60;100946.06;5014008;28;20029;-69
2023/12/28 07:17:50;;;;;;;80.75;77.07;;;;;;;10.90;69.71;100953.09;5023847;28;20462;-68
2023/12/28 07:20:16;;;;;;;79.57;75.75;;;;;;;10.88;69.94;100950.63;5048693;28;20024;-69
2023/12/28 07:22:41;;;;;;;80.32;76.63;;;;;;;10.86;69.59;100963.56;5014263;28;20036;-69
2023/12/28 07:25:07;;;;;;;84.25;78.75;;;;;;;10.86;69.77;100962.72;5014760;28;20034;-68
2023/12/28 07:27:34;;;;;;;79.60;75.93;;;;;;;10.86;69.74;100949.22;5041804;28;20458;-69
2023/12/28 07:30:00;;;;;;;83.75;79.95;;;;;;;10.86;69.59;100949.22;5021414;28;20084;-69
2023/12/28 07:32:25;;;;;;;81.47;77.63;;;;;;;10.85;69.86;100961.09;5012657;28;20022;-69
2023/12/28 07:34:53;;;;;;;78.78;74.40;;;;;;;10.84;69.73;100965.69;5030780;28;20362;-69
2023/12/28 07:37:18;;;;;;;80.25;76.55;;;;;;;10.83;69.60;100964.88;5033887;28;20030;-68
2023/12/28 07:39:44;;;;;;;78.97;75.07;;;;;;;10.85;69.72;100974.59;5012745;28;20041;-69
2023/12/28 07:42:09;;;;;;;82.60;78.47;;;;;;;10.87;69.94;100977.91;5016712;28;20381;-68
2023/12/28 07:44:35;;;;;;;80.10;75.85;;;;;;;10.87;69.86;100980.59;5027539;28;20083;-67
2023/12/28 07:47:00;;;;;;;79.00;75.50;;;;;;;10.87;69.86;100981.41;5029553;28;20488;-68
2023/12/28 07:49:26;;;;;;;81.78;78.15;;;;;;;10.87;69.84;100981.41;5037630;28;20458;-68
2023/12/28 07:51:51;;;;;;;79.82;76.30;;;;;;;10.88;69.82;100980.34;5012638;28;20382;-70
2023/12/28 07:54:17;;;;;;;79.70;75.43;;;;;;;10.91;69.77;100992.56;5017216;28;20041;-68
2023/12/28 07:56:42;;;;;;;82.28;78.38;;;;;;;10.91;69.75;100995.25;5047382;28;20461;-70
2023/12/28 07:59:09;;;;;;;79.78;76.07;;;;;;;10.93;69.82;101006.66;5015690;28;20109;-68
2023/12/28 08:01:34;;;;;;;81.80;77.90;;;;;;;10.91;69.99;101012.31;5012243;28;20033;-68
2023/12/28 08:04:01;;;;;;;80.32;76.80;;;;;;;10.93;70.05;101004.75;5024347;28;20052;-69
2023/12/28 08:06:27;;;;;;;82.85;78.95;;;;;;;10.95;69.77;101012.66;5029776;28;20502;-68
2023/12/28 08:08:53;;;;;;;81.45;77.70;;;;;;;10.95;69.76;101009.94;5046367;28;20032;-68
2023/12/28 08:11:19;;;;;;;81.95;77.55;;;;;;;10.96;69.65;101000.75;5043034;28;20436;-69
2023/12/28 08:13:44;;;;;;;81.88;77.65;;;;;;;10.96;69.63;101006.16;5031973;28;20121;-69
2023/12/28 08:16:10;;;;;;;80.13;76.60;;;;;;;10.98;69.69;100998.66;5018918;28;20485;-69
2023/12/28 08:18:35;;;;;;;81.22;77.65;;;;;;;11.01;69.62;100990.91;5011596;28;20507;-71
2023/12/28 08:21:01;;;;;;;81.85;78.25;;;;;;;11.02;69.50;100995.22;5028799;28;20025;-69
2023/12/28 08:23:26;;;;;;;84.97;80.68;;;;;;;11.01;69.78;100992.75;5032326;28;20476;-69
2023/12/28 08:25:51;;;;;;;83.30;79.30;;;;;;;11.01;69.66;100987.34;5017172;28;20171;-68
2023/12/28 08:28:17;;;;;;;80.60;76.90;;;;;;;11.03;69.38;101001.47;5034167;28;20030;-69
2023/12/28 08:30:42;;;;;;;79.10;75.32;;;;;;;11.03;69.65;100996.88;5031106;28;20050;-68
2023/12/28 08:33:08;;;;;;;82.90;79.20;;;;;;;11.04;69.50;101006.63;5035117;28;20044;-69
2023/12/28 08:35:33;;;;;;;78.72;75.00;;;;;;;11.04;69.75;101009.34;5023196;28;20363;-68
2023/12/28 08:37:59;;;;;;;79.93;76.20;;;;;;;11.02;69.68;101013.34;5013896;28;20041;-68
2023/12/28 08:40:25;;;;;;;85.65;81.65;;;;;;;11.02;69.52;101019.56;5022650;28;20054;-68
2023/12/28 08:42:50;;;;;;;83.07;79.30;;;;;;;11.04;69.36;101014.75;5011014;28;20516;-67
2023/12/28 08:45:16;;;;;;;80.32;76.75;;;;;;;11.04;69.72;101030.16;5019297;28;20046;-67
2023/12/28 08:47:41;;;;;;;84.30;80.38;;;;;;;11.04;69.68;101043.66;5037270;28;20041;-70
2023/12/28 08:50:07;;;;;;;82.07;78.05;;;;;;;11.05;69.65;101029.06;5031288;28;20041;-69
2023/12/28 08:52:32;;;;;;;81.30;77.47;;;;;;;11.04;69.96;101030.16;5026480;28;20091;-69
2023/12/28 08:54:59;;;;;;;79.78;75.97;;;;;;;11.03;69.73;101031.19;5028948;28;20103;-69
2023/12/28 08:57:24;;;;;;;80.45;76.90;;;;;;;11.02;69.47;101026.84;5038903;28;20110;-71
2023/12/28 08:59:50;;;;;;;83.43;79.40;;;;;;;11.04;69.63;101033.66;5019993;28;20466;-69
2023/12/28 09:02:15;;;;;;;83.10;78.05;;;;;;;11.04;69.96;101030.97;5025832;28;20128;-68
2023/12/28 09:04:40;;;;;;;81.88;78.15;;;;;;;11.04;69.43;101030.16;5019529;28;20365;-70
2023/12/28 09:07:06;;;;;;;83.13;79.18;;;;;;;11.04;69.62;101035.56;5012116;28;20030;-70
2023/12/28 09:09:31;;;;;;;82.88;79.13;;;;;;;11.05;69.92;101031.78;5009906;28;20447;-69
2023/12/28 09:11:56;;;;;;;83.65;79.13;;;;;;;11.05;69.64;101039.88;4993809;28;20034;-68
2023/12/28 09:14:22;;;;;;;83.38;79.63;;;;;;;11.07;69.79;101036.97;5010349;28;20026;-70
2023/12/28 09:16:47;;;;;;;83.82;78.97;;;;;;;11.07;69.68;101040.47;5018594;28;20092;-70
2023/12/28 09:19:14;;;;;;;85.13;80.15;;;;;;;11.08;69.83;101033.19;5027829;28;20041;-70
2023/12/28 09:21:40;;;;;;;86.90;82.47;;;;;;;11.08;69.68;101046.69;5030032;28;20045;-69
2023/12/28 09:24:07;;;;;;;80.97;77.35;;;;;;;11.08;69.76;101052.09;5031939;28;20029;-69
2023/12/28 09:26:33;;;;;;;79.70;76.00;;;;;;;11.06;69.42;101055.03;5015112;28;20045;-70
2023/12/28 09:28:59;;;;;;;84.45;79.80;;;;;;;11.04;69.85;101052.59;5011987;28;20530;-70
2023/12/28 09:31:24;;;;;;;81.82;78.15;;;;;;;11.05;69.79;101073.16;5012686;28;20036;-70
2023/12/28 09:33:49;;;;;;;84.38;80.30;;;;;;;11.04;69.82;101060.69;5035882;28;20401;-70
2023/12/28 09:36:16;;;;;;;80.45;76.70;;;;;;;11.05;69.93;101065.03;5016009;28;20026;-69
2023/12/28 09:38:42;;;;;;;84.78;80.88;;;;;;;11.07;69.80;101072.91;5012498;28;20044;-69
2023/12/28 09:41:16;;;;;;;82.18;78.38;;;;;;;11.09;69.96;101081.63;5026772;28;20037;-69
2023/12/28 09:43:47;;;;;;;83.65;78.53;;;;;;;11.08;70.12;101077.25;5021500;28;20026;-68
2023/12/28 09:46:14;;;;;;;81.32;77.40;;;;;;;11.07;69.72;101075.63;5017106;28;20029;-70
2023/12/28 09:48:39;;;;;;;85.78;81.28;;;;;;;11.08;69.70;101087.25;5031172;28;20440;-69
2023/12/28 09:51:05;;;;;;;81.82;78.13;;;;;;;11.08;69.88;101084.53;5026458;28;20033;-69
2023/12/28 09:53:31;;;;;;;78.68;75.07;;;;;;;11.09;69.89;101087.03;5025710;28;20025;-70
2023/12/28 09:55:57;;;;;;;85.15;81.05;;;;;;;11.11;69.93;101079.47;5031001;28;20030;-69
2023/12/28 09:58:23;;;;;;;85.40;81.47;;;;;;;11.11;69.74;101084.88;5028135;28;20123;-69
2023/12/28 10:00:50;;;;;;;83.38;79.45;;;;;;;11.11;69.73;101084.88;5039842;28;20139;-69
2023/12/28 10:03:17;;;;;;;81.30;77.50;;;;;;;11.11;69.77;101082.19;5030522;28;20033;-69
2023/12/28 10:05:43;;;;;;;84.32;80.43;;;;;;;11.14;69.54;101081.72;5029823;28;20477;-73
2023/12/28 10:08:11;;;;;;;81.97;78.10;;;;;;;11.14;69.64;101065.50;5033103;28;20448;-69
2023/12/28 10:10:36;;;;;;;83.27;79.50;;;;;;;11.16;69.54;101076.06;5046746;28;20068;-69
2023/12/28 10:13:02;;;;;;;83.40;79.40;;;;;;;11.17;69.68;101067.72;5025677;28;20513;-70
2023/12/28 10:15:28;;;;;;;83.35;79.43;;;;;;;11.18;69.70;101073.94;5013567;28;20022;-69
2023/12/28 10:17:53;;;;;;;86.45;82.55;;;;;;;11.20;69.45;101071.84;5030149;28;20030;-69
2023/12/28 10:20:19;;;;;;;87.53;83.32;;;;;;;11.19;69.62;101068.31;5012973;28;20032;-69
2023/12/28 10:22:44;;;;;;;83.70;79.90;;;;;;;11.19;69.70;101068.31;5013720;28;20465;-67
2023/12/28 10:25:11;;;;;;;82.70;78.90;;;;;;;11.19;69.62;101075.59;5035510;28;20037;-69
2023/12/28 10:27:42;;;;;;;83.88;80.00;;;;;;;11.19;69.73;101072.91;5023207;28;20121;-70
2023/12/28 10:30:09;;;;;;;83.65;79.07;;;;;;;11.18;69.70;101073.94;5011938;28;20470;-69
2023/12/28 10:32:35;;;;;;;86.70;82.57;;;;;;;11.19;69.93;101070.19;5013899;28;20033;-69
2023/12/28 10:35:01;;;;;;;85.32;81.32;;;;;;;11.20;69.70;101063.72;5030369;28;20091;-70
2023/12/28 10:37:26;;;;;;;84.47;80.60;;;;;;;11.21;69.90;101066.19;5011124;28;20099;-69
2023/12/28 10:39:53;;;;;;;87.28;82.88;;;;;;;11.22;69.85;101064.31;5027014;28;20046;-69
2023/12/28 10:42:30;;;;;;;83.53;79.85;;;;;;;11.21;69.66;101062.66;5012120;28;20034;-70
2023/12/28 10:45:04;;;;;;;86.07;82.13;;;;;;;11.20;69.75;101064.53;5021546;28;20037;-70
2023/12/28 10:47:33;;;;;;;83.95;80.05;;;;;;;11.23;69.90;101049.72;5027505;28;20030;-70
2023/12/28 10:50:02;;;;;;;85.13;81.20;;;;;;;11.23;70.46;101049.72;5012599;28;20569;-69
2023/12/28 10:52:30;;;;;;;85.35;81.25;;;;;;;11.21;69.88;101057.25;5029389;28;20116;-68
2023/12/28 10:55:27;;;;;;;84.53;80.13;;;;;;;11.20;69.85;101063.72;5032967;28;20029;-69
2023/12/28 10:58:03;;;;;;;84.07;79.97;;;;;;;11.20;69.72;101059.13;5028854;28;20038;-70
2023/12/28 11:00:33;;;;;;;83.72;79.63;;;;;;;11.23;69.68;101052.41;5027797;28;20042;-69
2023/12/28 11:03:08;;;;;;;85.93;82.18;;;;;;;11.24;69.59;101063.00;5027565;28;20116;-67
2023/12/28 11:05:35;;;;;;;87.35;82.50;;;;;;;11.26;69.82;101050.06;5021586;28;20038;-69